createdAt,value
2018-08-28T00:01:33.787Z,4.90
2018-08-28T00:04:01.974Z,4.70
2018-08-28T00:06:30.144Z,4.40
2018-08-28T00:08:58.337Z,4.77
2018-08-28T00:11:26.523Z,4.70
2018-08-28T00:13:54.696Z,4.07
2018-08-28T00:16:22.857Z,4.50
2018-08-28T00:18:51.021Z,4.80
2018-08-28T00:21:19.211Z,4.67
2018-08-28T00:23:47.376Z,4.40
2018-08-28T00:26:15.559Z,4.53
2018-08-28T00:28:43.721Z,5.07
2018-08-28T00:31:11.910Z,4.10
2018-08-28T00:33:40.204Z,4.23
2018-08-28T00:36:08.379Z,4.67
2018-08-28T00:38:36.536Z,4.60
2018-08-28T00:41:04.709Z,4.40
2018-08-28T00:43:32.881Z,4.73
2018-08-28T00:46:01.063Z,4.43
2018-08-28T00:48:29.232Z,4.63
2018-08-28T00:50:57.411Z,4.90
2018-08-28T00:53:25.592Z,4.90
2018-08-28T00:55:53.764Z,4.80
2018-08-28T00:58:21.941Z,5.00
2018-08-28T01:00:50.174Z,4.93
2018-08-28T01:03:18.369Z,5.20
2018-08-28T01:05:46.605Z,4.87
2018-08-28T01:08:14.792Z,5.23
2018-08-28T01:10:42.976Z,5.07
2018-08-28T01:13:11.170Z,5.40
2018-08-28T01:15:39.340Z,5.00
2018-08-28T01:18:07.550Z,4.57
2018-08-28T01:20:35.729Z,5.40
2018-08-28T01:23:03.917Z,4.70
2018-08-28T01:25:32.087Z,4.33
2018-08-28T01:28:00.260Z,4.60
2018-08-28T01:30:32.459Z,4.70
2018-08-28T01:33:01.000Z,4.20
2018-08-28T01:35:29.270Z,5.33
2018-08-28T01:37:57.597Z,5.43
2018-08-28T01:40:25.760Z,4.87
2018-08-28T01:42:53.936Z,5.10
2018-08-28T01:45:22.097Z,4.47
2018-08-28T01:47:50.277Z,4.73
2018-08-28T01:50:18.434Z,5.10
2018-08-28T01:52:46.608Z,5.00
2018-08-28T01:55:14.797Z,5.33
2018-08-28T01:57:42.961Z,4.80
2018-08-28T02:00:11.147Z,5.13
2018-08-28T02:02:39.354Z,4.90
2018-08-28T02:05:07.856Z,5.03
2018-08-28T02:07:36.144Z,5.03
2018-08-28T02:10:04.340Z,5.17
2018-08-28T02:12:32.517Z,5.47
2018-08-28T02:15:00.703Z,5.30
2018-08-28T02:17:28.880Z,4.50
2018-08-28T02:19:57.045Z,4.63
2018-08-28T02:22:25.284Z,5.37
2018-08-28T02:24:53.482Z,5.00
2018-08-28T02:27:21.646Z,4.77
2018-08-28T02:29:49.816Z,5.20
2018-08-28T02:32:17.980Z,5.17
2018-08-28T02:34:46.165Z,5.23
2018-08-28T02:37:14.336Z,5.17
2018-08-28T02:39:42.536Z,5.07
2018-08-28T02:42:10.700Z,5.37
2018-08-28T02:44:38.864Z,5.57
2018-08-28T02:47:07.046Z,5.23
2018-08-28T02:49:35.204Z,5.70
2018-08-28T02:52:03.368Z,5.03
2018-08-28T02:54:31.536Z,5.30
2018-08-28T02:56:59.716Z,5.30
2018-08-28T02:59:27.884Z,5.10
2018-08-28T03:01:56.040Z,5.77
2018-08-28T03:04:24.197Z,5.63
2018-08-28T03:06:52.365Z,5.60
2018-08-28T03:09:20.532Z,5.63
2018-08-28T03:11:48.732Z,5.50
2018-08-28T03:14:16.888Z,5.33
2018-08-28T03:16:45.046Z,5.63
2018-08-28T03:19:13.205Z,5.63
2018-08-28T03:21:41.380Z,5.33
2018-08-28T03:24:09.550Z,6.23
2018-08-28T03:26:37.750Z,5.80
2018-08-28T03:29:06.005Z,5.57
2018-08-28T03:31:34.119Z,5.67
2018-08-28T03:34:02.630Z,6.27
2018-08-28T03:36:30.796Z,5.53
2018-08-28T03:38:59.089Z,5.80
2018-08-28T03:41:27.280Z,6.43
2018-08-28T03:43:55.741Z,5.87
2018-08-28T03:46:23.912Z,5.93
2018-08-28T03:48:52.096Z,6.10
2018-08-28T03:51:20.265Z,5.67
2018-08-28T03:53:48.425Z,5.93
2018-08-28T03:56:16.588Z,5.80
2018-08-28T03:58:44.757Z,5.50
2018-08-28T04:01:12.960Z,6.30
2018-08-28T04:03:41.186Z,6.23
2018-08-28T04:06:09.366Z,5.93
2018-08-28T04:08:37.520Z,5.97
2018-08-28T04:11:05.718Z,6.53
2018-08-28T04:13:33.966Z,6.50
2018-08-28T04:16:02.228Z,6.47
2018-08-28T04:18:30.408Z,6.10
2018-08-28T04:20:58.588Z,5.80
2018-08-28T04:23:26.772Z,6.40
2018-08-28T04:25:54.941Z,6.40
2018-08-28T04:28:24.894Z,6.47
2018-08-28T04:30:53.760Z,6.13
2018-08-28T04:33:21.986Z,7.10
2018-08-28T04:35:50.211Z,6.37
2018-08-28T04:38:18.457Z,6.93
2018-08-28T04:40:46.677Z,7.13
2018-08-28T04:43:14.918Z,6.63
2018-08-28T04:45:43.185Z,6.47
2018-08-28T04:48:11.473Z,6.87
2018-08-28T04:50:39.737Z,7.07
2018-08-28T04:53:08.043Z,7.13
2018-08-28T04:55:36.305Z,7.17
2018-08-28T04:58:04.558Z,7.37
2018-08-28T05:00:32.847Z,6.87
2018-08-28T05:03:01.130Z,6.70
2018-08-28T05:05:29.393Z,7.77
2018-08-28T05:07:57.656Z,7.57
2018-08-28T05:10:25.900Z,7.37
2018-08-28T05:12:54.130Z,7.10
2018-08-28T05:15:22.407Z,6.87
2018-08-28T05:17:50.628Z,7.20
2018-08-28T05:20:18.901Z,7.10
2018-08-28T05:22:47.800Z,7.03
2018-08-28T05:25:16.073Z,7.43
2018-08-28T05:27:44.339Z,7.50
2018-08-28T05:30:12.558Z,7.80
2018-08-28T05:32:40.839Z,7.30
2018-08-28T05:35:09.107Z,7.00
2018-08-28T05:37:37.341Z,6.70
2018-08-28T05:40:05.845Z,6.60
2018-08-28T05:42:34.135Z,7.23
2018-08-28T05:45:02.428Z,7.07
2018-08-28T05:47:30.646Z,7.53
2018-08-28T05:50:02.688Z,6.93
2018-08-28T05:52:30.998Z,7.13
2018-08-28T05:54:59.288Z,6.83
2018-08-28T05:57:27.574Z,7.20
2018-08-28T05:59:55.922Z,6.83
2018-08-28T06:02:24.173Z,6.87
2018-08-28T06:04:52.432Z,7.07
2018-08-28T06:07:20.697Z,6.47
2018-08-28T06:09:49.044Z,7.07
2018-08-28T06:12:17.379Z,7.00
2018-08-28T06:14:45.734Z,7.27
2018-08-28T06:17:13.933Z,7.70
2018-08-28T06:19:42.243Z,6.40
2018-08-28T06:22:11.074Z,7.50
2018-08-28T06:24:39.567Z,7.23
2018-08-28T06:27:07.851Z,6.73
2018-08-28T06:29:36.141Z,7.50
2018-08-28T06:32:04.842Z,7.30
2018-08-28T06:34:33.080Z,6.80
2018-08-28T06:37:01.955Z,7.07
2018-08-28T06:39:30.252Z,6.53
2018-08-28T06:41:58.582Z,7.07
2018-08-28T06:44:26.889Z,6.90
2018-08-28T06:46:55.298Z,6.90
2018-08-28T06:49:23.688Z,6.80
2018-08-28T06:51:51.941Z,7.07
2018-08-28T06:54:20.167Z,7.37
2018-08-28T06:56:48.923Z,6.97
2018-08-28T06:59:17.153Z,7.23
2018-08-28T07:01:45.369Z,6.40
2018-08-28T07:04:13.627Z,6.80
2018-08-28T07:06:42.246Z,7.37
2018-08-28T07:09:10.522Z,7.57
2018-08-28T07:11:39.283Z,7.30
2018-08-28T07:14:07.497Z,6.70
2018-08-28T07:16:35.746Z,7.53
2018-08-28T07:19:04.029Z,7.07
2018-08-28T07:21:32.370Z,7.70
2018-08-28T07:24:00.912Z,7.40
2018-08-28T07:26:29.273Z,7.90
2018-08-28T07:28:57.591Z,6.70
2018-08-28T07:31:27.743Z,6.90
2018-08-28T07:33:57.331Z,7.37
2018-08-28T07:36:25.558Z,7.40
2018-08-28T07:38:53.899Z,6.70
2018-08-28T07:41:22.294Z,6.73
2018-08-28T07:43:52.615Z,6.53
2018-08-28T07:46:21.699Z,6.73
2018-08-28T07:48:52.682Z,6.43
2018-08-28T07:51:22.057Z,7.07
2018-08-28T07:53:50.484Z,7.13
2018-08-28T07:56:20.531Z,7.13
2018-08-28T07:58:48.876Z,6.47
2018-08-28T08:01:17.227Z,7.10
2018-08-28T08:03:47.505Z,6.93
2018-08-28T08:06:15.753Z,6.27
2018-08-28T08:08:43.981Z,7.53
2018-08-28T08:11:12.282Z,6.37
2018-08-28T08:13:40.569Z,6.73
2018-08-28T08:16:10.021Z,5.37
2018-08-28T08:18:40.407Z,6.00
2018-08-28T08:21:08.671Z,5.53
2018-08-28T08:23:37.041Z,5.40
2018-08-28T08:26:05.302Z,5.67
2018-08-28T08:28:33.513Z,4.93
2018-08-28T08:31:01.760Z,4.97
2018-08-28T08:33:30.206Z,4.73
2018-08-28T08:35:58.481Z,5.40
2018-08-28T08:38:26.701Z,5.10
2018-08-28T08:40:55.060Z,5.37
2018-08-28T08:43:23.404Z,5.33
2018-08-28T08:45:51.965Z,5.03
2018-08-28T08:48:20.325Z,4.70
2018-08-28T08:50:48.673Z,4.67
2018-08-28T08:53:17.101Z,4.97
2018-08-28T08:55:46.462Z,4.20
2018-08-28T08:58:14.837Z,4.60
2018-08-28T09:00:43.542Z,4.47
2018-08-28T09:03:11.819Z,4.60
2018-08-28T09:05:40.189Z,4.67
2018-08-28T09:08:08.572Z,4.37
2018-08-28T09:10:37.196Z,4.10
2018-08-28T09:13:05.497Z,4.20
2018-08-28T09:15:36.740Z,4.00
2018-08-28T09:18:05.338Z,4.10
2018-08-28T09:20:33.559Z,4.20
2018-08-28T09:23:01.811Z,4.27
2018-08-28T09:25:30.092Z,3.80
2018-08-28T09:27:58.457Z,3.80
2018-08-28T09:30:26.740Z,4.07
2018-08-28T09:32:55.013Z,4.17
2018-08-28T09:35:23.353Z,3.90
2018-08-28T09:37:51.643Z,4.00
2018-08-28T09:40:19.908Z,4.10
2018-08-28T09:42:48.334Z,3.53
2018-08-28T09:45:16.705Z,4.10
2018-08-28T09:47:44.989Z,4.00
2018-08-28T09:50:14.228Z,3.70
2018-08-28T09:52:42.492Z,3.77
2018-08-28T09:55:11.655Z,3.90
2018-08-28T09:57:40.576Z,3.67
2018-08-28T10:00:13.713Z,4.00
2018-08-28T10:02:43.172Z,4.30
2018-08-28T10:05:11.432Z,3.67
2018-08-28T10:07:40.097Z,4.30
2018-08-28T10:10:08.473Z,4.00
2018-08-28T10:12:40.222Z,4.33
2018-08-28T10:15:08.551Z,3.70
2018-08-28T10:17:36.864Z,4.10
2018-08-28T10:20:05.313Z,3.77
2018-08-28T10:22:33.562Z,3.57
2018-08-28T10:25:01.909Z,4.00
2018-08-28T10:27:30.177Z,3.83
2018-08-28T10:29:58.508Z,4.23
2018-08-28T10:32:26.722Z,4.43
2018-08-28T10:34:55.061Z,3.77
2018-08-28T10:37:23.490Z,4.10
2018-08-28T10:39:52.192Z,4.30
2018-08-28T10:42:20.567Z,4.10
2018-08-28T10:44:48.921Z,4.53
2018-08-28T10:47:17.187Z,3.70
2018-08-28T10:49:45.524Z,4.00
2018-08-28T10:52:13.745Z,3.90
2018-08-28T10:54:41.991Z,3.90
2018-08-28T10:57:10.284Z,3.90
2018-08-28T10:59:38.556Z,3.40
2018-08-28T11:02:07.585Z,3.67
2018-08-28T11:04:36.889Z,4.17
2018-08-28T11:07:07.235Z,3.93
2018-08-28T11:09:35.640Z,4.03
2018-08-28T11:12:03.960Z,3.77
2018-08-28T11:14:32.200Z,3.80
2018-08-28T11:17:00.435Z,3.80
2018-08-28T11:19:29.399Z,4.03
2018-08-28T11:21:57.790Z,4.30
2018-08-28T11:24:26.031Z,4.13
2018-08-28T11:26:54.296Z,4.05
2018-08-28T11:29:23.583Z,3.53
2018-08-28T11:31:51.970Z,3.93
2018-08-28T11:34:21.277Z,4.07
2018-08-28T11:36:49.762Z,4.13
2018-08-28T11:39:18.321Z,3.70
2018-08-28T11:41:46.921Z,3.57
2018-08-28T11:44:15.147Z,3.73
2018-08-28T11:46:43.683Z,4.37
2018-08-28T11:49:12.177Z,4.03
2018-08-28T11:51:40.702Z,4.40
2018-08-28T11:54:09.081Z,3.83
2018-08-28T11:56:37.727Z,4.00
2018-08-28T11:59:07.662Z,3.80
2018-08-28T12:01:36.522Z,3.87
2018-08-28T12:04:06.700Z,4.10
2018-08-28T12:06:35.680Z,3.80
2018-08-28T12:09:05.313Z,3.87
2018-08-28T12:11:34.273Z,3.57
2018-08-28T12:14:03.747Z,4.40
2018-08-28T12:16:33.092Z,4.07
2018-08-28T12:19:02.078Z,3.67
2018-08-28T12:21:31.406Z,4.07
2018-08-28T12:24:00.191Z,4.43
2018-08-28T12:26:28.565Z,4.40
2018-08-28T12:28:57.225Z,4.47
2018-08-28T12:31:30.872Z,4.50
2018-08-28T12:34:00.397Z,4.17
2018-08-28T12:36:28.901Z,4.80
2018-08-28T12:38:58.225Z,4.53
2018-08-28T12:41:28.192Z,4.40
2018-08-28T12:43:56.967Z,4.37
2018-08-28T12:46:25.697Z,4.40
2018-08-28T12:48:54.319Z,4.50
2018-08-28T12:51:23.174Z,3.97
2018-08-28T12:53:51.842Z,4.07
2018-08-28T12:56:22.682Z,3.77
2018-08-28T12:58:51.794Z,3.77
2018-08-28T13:01:20.706Z,4.20
2018-08-28T13:03:49.637Z,4.10
2018-08-28T13:06:20.609Z,4.30
2018-08-28T13:08:50.432Z,3.80
2018-08-28T13:11:19.053Z,4.03
2018-08-28T13:13:48.076Z,4.13
2018-08-28T13:16:17.154Z,4.20
2018-08-28T13:18:46.445Z,4.17
2018-08-28T13:21:22.522Z,4.17
2018-08-28T13:23:51.146Z,4.10
2018-08-28T13:26:20.608Z,4.57
2018-08-28T13:28:49.364Z,4.23
2018-08-28T13:31:18.665Z,4.27
2018-08-28T13:33:47.323Z,4.22
2018-08-28T13:36:15.768Z,3.80
2018-08-28T13:38:44.572Z,4.43
2018-08-28T13:41:13.435Z,4.00
2018-08-28T13:43:42.190Z,4.23
2018-08-28T13:46:11.016Z,3.97
2018-08-28T13:48:39.657Z,4.23
2018-08-28T13:51:08.465Z,4.17
2018-08-28T13:53:40.378Z,3.85
2018-08-28T13:56:09.140Z,4.20
2018-08-28T13:58:37.969Z,4.40
2018-08-28T14:01:06.757Z,4.10
2018-08-28T14:03:35.050Z,4.57
2018-08-28T14:06:03.574Z,4.13
2018-08-28T14:08:31.968Z,3.77
2018-08-28T14:11:00.682Z,4.33
2018-08-28T14:13:29.121Z,3.80
2018-08-28T14:15:57.653Z,4.50
2018-08-28T14:18:26.110Z,3.90
2018-08-28T14:20:54.520Z,3.93
2018-08-28T14:23:22.884Z,4.33
2018-08-28T14:25:51.609Z,4.03
2018-08-28T14:28:19.954Z,3.67
2018-08-28T14:30:48.345Z,3.73
2018-08-28T14:33:16.742Z,4.10
2018-08-28T14:35:45.025Z,3.93
2018-08-28T14:38:13.284Z,3.77
2018-08-28T14:40:41.917Z,3.80
2018-08-28T14:43:10.157Z,4.20
2018-08-28T14:45:38.401Z,3.73
2018-08-28T14:48:06.694Z,3.70
2018-08-28T14:50:35.082Z,3.83
2018-08-28T14:53:03.241Z,3.97
2018-08-28T14:55:31.498Z,4.07
2018-08-28T14:57:59.799Z,4.33
2018-08-28T15:00:28.127Z,4.13
2018-08-28T15:02:56.388Z,4.20
2018-08-28T15:05:24.768Z,4.30
2018-08-28T15:07:53.866Z,4.23
2018-08-28T15:10:22.386Z,4.13
2018-08-28T15:12:50.627Z,4.33
2018-08-28T15:15:18.966Z,3.60
2018-08-28T15:17:48.072Z,4.30
2018-08-28T15:20:17.270Z,4.10
2018-08-28T15:22:46.248Z,3.77
2018-08-28T15:25:15.000Z,4.10
2018-08-28T15:27:43.712Z,4.17
2018-08-28T15:30:12.604Z,3.93
2018-08-28T15:32:41.536Z,4.10
2018-08-28T15:35:10.173Z,3.83
2018-08-28T15:37:38.891Z,4.03
2018-08-28T15:40:08.705Z,4.00
2018-08-28T15:42:38.824Z,4.17
2018-08-28T15:45:10.320Z,4.03
2018-08-28T15:47:39.611Z,3.83
2018-08-28T15:50:09.767Z,3.90
2018-08-28T15:52:42.108Z,3.70
2018-08-28T15:55:12.659Z,4.17
2018-08-28T15:57:42.533Z,3.77
2018-08-28T16:00:15.889Z,3.50
2018-08-28T16:02:50.786Z,4.10
2018-08-28T16:05:20.884Z,3.97
2018-08-28T16:07:51.967Z,3.67
2018-08-28T16:10:21.906Z,3.80
2018-08-28T16:12:50.967Z,3.80
2018-08-28T16:15:19.342Z,3.97
2018-08-28T16:17:47.965Z,4.00
2018-08-28T16:20:16.403Z,3.60
2018-08-28T16:23:03.918Z,3.63
2018-08-28T16:25:32.795Z,3.73
2018-08-28T16:28:02.030Z,4.10
2018-08-28T16:30:30.707Z,3.97
2018-08-28T16:33:00.049Z,3.90
2018-08-28T16:35:28.959Z,3.80
2018-08-28T16:37:57.609Z,3.70
2018-08-28T16:40:27.031Z,3.87
2018-08-28T16:42:57.405Z,3.50
2018-08-28T16:45:25.949Z,3.70
2018-08-28T16:47:55.046Z,3.70
2018-08-28T16:50:23.855Z,3.63
2018-08-28T16:52:52.779Z,3.63
2018-08-28T16:55:22.346Z,3.93
2018-08-28T16:57:51.037Z,3.80
2018-08-28T17:00:20.769Z,3.80
2018-08-28T17:02:50.359Z,3.67
2018-08-28T17:05:19.240Z,3.73
2018-08-28T17:07:49.451Z,3.90
2018-08-28T17:10:18.240Z,3.77
2018-08-28T17:12:47.917Z,3.53
2018-08-28T17:15:16.554Z,3.70
2018-08-28T17:17:45.397Z,4.13
2018-08-28T17:20:14.573Z,3.57
2018-08-28T17:22:43.349Z,3.87
2018-08-28T17:25:12.678Z,4.00
2018-08-28T17:27:41.337Z,3.23
2018-08-28T17:30:10.127Z,4.00
2018-08-28T17:32:38.791Z,3.70
2018-08-28T17:35:07.768Z,3.53
2018-08-28T17:37:36.631Z,3.73
2018-08-28T17:40:06.203Z,3.50
2018-08-28T17:42:35.008Z,3.97
2018-08-28T17:45:04.036Z,3.83
2018-08-28T17:47:33.239Z,3.83
2018-08-28T17:50:01.957Z,3.90
2018-08-28T17:52:30.461Z,4.10
2018-08-28T17:54:59.732Z,3.17
2018-08-28T17:57:28.657Z,3.40
2018-08-28T17:59:58.457Z,3.67
2018-08-28T18:02:26.967Z,3.73
2018-08-28T18:04:55.379Z,3.83
2018-08-28T18:07:24.281Z,3.90
2018-08-28T18:09:52.842Z,3.77
2018-08-28T18:12:21.536Z,3.87
2018-08-28T18:14:50.669Z,4.03
2018-08-28T18:17:19.000Z,4.00
2018-08-28T18:19:48.257Z,4.00
2018-08-28T18:22:17.250Z,4.03
2018-08-28T18:24:45.584Z,4.30
2018-08-28T18:27:13.931Z,4.27
2018-08-28T18:29:42.286Z,3.97
2018-08-28T18:32:13.399Z,4.10
2018-08-28T18:34:41.788Z,4.30
2018-08-28T18:37:10.145Z,4.23
2018-08-28T18:39:38.513Z,4.27
2018-08-28T18:42:07.130Z,4.30
2018-08-28T18:44:37.606Z,4.17
2018-08-28T18:47:06.204Z,4.47
2018-08-28T18:49:35.598Z,4.00
2018-08-28T18:52:03.975Z,4.00
2018-08-28T18:54:32.924Z,4.63
2018-08-28T18:57:01.159Z,4.80
2018-08-28T18:59:29.675Z,4.67
2018-08-28T19:01:58.620Z,4.97
2018-08-28T19:04:26.900Z,5.53
2018-08-28T19:06:55.133Z,5.40
2018-08-28T19:09:23.380Z,5.23
2018-08-28T19:11:51.842Z,4.73
2018-08-28T19:14:20.448Z,5.37
2018-08-28T19:16:48.681Z,4.93
2018-08-28T19:19:17.293Z,4.70
2018-08-28T19:21:45.490Z,5.03
2018-08-28T19:24:13.745Z,4.80
2018-08-28T19:26:42.664Z,4.97
2018-08-28T19:29:10.973Z,5.20
2018-08-28T19:31:39.351Z,4.93
2018-08-28T19:34:08.513Z,6.03
2018-08-28T19:36:36.802Z,5.30
2018-08-28T19:39:05.610Z,4.97
2018-08-28T19:41:34.681Z,5.63
2018-08-28T19:44:03.091Z,5.50
2018-08-28T19:46:31.990Z,5.80
2018-08-28T19:49:02.946Z,5.47
2018-08-28T19:51:31.225Z,5.37
2018-08-28T19:54:01.616Z,5.03
2018-08-28T19:56:30.157Z,5.67
2018-08-28T19:58:58.677Z,5.70
2018-08-28T20:01:27.462Z,6.00
2018-08-28T20:03:59.568Z,6.43
2018-08-28T20:06:28.156Z,6.53
2018-08-28T20:08:56.499Z,7.40
2018-08-28T20:11:24.909Z,6.97
2018-08-28T20:13:53.188Z,6.37
2018-08-28T20:16:21.462Z,6.53
2018-08-28T20:18:51.671Z,6.87
2018-08-28T20:21:20.102Z,7.00
2018-08-28T20:23:48.537Z,6.97
2018-08-28T20:26:17.568Z,6.50
2018-08-28T20:28:46.261Z,6.20
2018-08-28T20:31:14.946Z,6.30
2018-08-28T20:33:43.632Z,6.00
2018-08-28T20:36:12.278Z,6.40
2018-08-28T20:38:41.210Z,6.33
2018-08-28T20:41:09.879Z,6.30
2018-08-28T20:43:38.689Z,6.23
2018-08-28T20:46:07.084Z,6.57
2018-08-28T20:48:35.538Z,6.87
2018-08-28T20:51:04.505Z,6.70
2018-08-28T20:53:33.815Z,6.73
2018-08-28T20:56:02.247Z,7.20
2018-08-28T20:58:30.620Z,6.80
2018-08-28T21:00:59.114Z,6.87
2018-08-28T21:03:27.530Z,6.40
2018-08-28T21:05:55.789Z,7.23
2018-08-28T21:08:24.645Z,6.87
2018-08-28T21:10:53.550Z,7.10
2018-08-28T21:13:21.852Z,6.80
2018-08-28T21:15:50.998Z,7.10
2018-08-28T21:18:19.916Z,6.80
2018-08-28T21:20:48.486Z,7.20
2018-08-28T21:23:17.479Z,7.33
2018-08-28T21:25:45.758Z,7.67
2018-08-28T21:28:14.382Z,7.53
2018-08-28T21:30:43.302Z,7.30
2018-08-28T21:33:11.849Z,7.23
2018-08-28T21:35:40.587Z,7.70
2018-08-28T21:38:09.889Z,7.17
2018-08-28T21:40:38.259Z,8.20
2018-08-28T21:43:06.552Z,7.40
2018-08-28T21:45:34.846Z,7.70
2018-08-28T21:48:03.281Z,7.50
2018-08-28T21:50:31.687Z,8.00
2018-08-28T21:53:00.129Z,8.30
2018-08-28T21:55:28.546Z,7.77
2018-08-28T21:57:57.178Z,7.20
2018-08-28T22:00:25.512Z,7.77
2018-08-28T22:02:53.922Z,8.47
2018-08-28T22:05:30.935Z,9.70
2018-08-28T22:08:01.580Z,9.83
2018-08-28T22:10:30.504Z,9.23
2018-08-28T22:12:58.798Z,8.33
2018-08-28T22:15:27.124Z,8.87
2018-08-28T22:17:55.774Z,9.07
2018-08-28T22:20:24.412Z,9.37
2018-08-28T22:22:53.352Z,8.87
2018-08-28T22:25:21.721Z,8.40
2018-08-28T22:27:50.115Z,8.90
2018-08-28T22:30:18.429Z,8.87
2018-08-28T22:32:46.709Z,9.00
2018-08-28T22:35:14.978Z,9.70
2018-08-28T22:37:43.288Z,9.20
2018-08-28T22:40:12.357Z,9.17
2018-08-28T22:42:40.679Z,8.80
2018-08-28T22:45:08.980Z,9.57
2018-08-28T22:47:38.197Z,9.37
2018-08-28T22:50:06.585Z,9.23
2018-08-28T22:52:34.881Z,8.80
2018-08-28T22:55:03.331Z,9.80
2018-08-28T22:57:31.697Z,9.13
2018-08-28T23:00:00.019Z,8.87
2018-08-28T23:02:28.834Z,9.00
2018-08-28T23:04:57.077Z,9.23
2018-08-28T23:07:25.366Z,9.13
2018-08-28T23:09:53.660Z,9.10
2018-08-28T23:12:22.028Z,9.77
2018-08-28T23:14:50.476Z,9.20
2018-08-28T23:17:18.756Z,9.43
2018-08-28T23:19:46.987Z,9.70
2018-08-28T23:22:15.283Z,9.37
2018-08-28T23:24:43.571Z,8.90
2018-08-28T23:27:11.839Z,9.17
2018-08-28T23:29:40.119Z,8.80
2018-08-28T23:32:08.475Z,8.67
2018-08-28T23:34:36.783Z,9.00
2018-08-28T23:37:05.356Z,9.67
2018-08-28T23:39:33.579Z,9.10
2018-08-28T23:42:01.891Z,9.53
2018-08-28T23:44:30.151Z,9.20
2018-08-28T23:46:58.405Z,9.00
2018-08-28T23:49:26.678Z,9.17
2018-08-28T23:51:54.989Z,10.10
2018-08-28T23:54:23.285Z,9.33
2018-08-28T23:56:51.566Z,9.10
2018-08-28T23:59:19.817Z,9.63
